createdAt,value
2023-03-02T11:50:17.480Z,8.50
2023-03-02T11:53:52.639Z,8.48
2023-03-02T11:57:39.823Z,8.50
2023-03-02T12:01:04.569Z,8.58
2023-03-02T12:04:38.385Z,8.61
2023-03-02T12:08:19.025Z,8.63
2023-03-02T12:11:45.326Z,8.70
2023-03-02T12:15:29.921Z,8.71
2023-03-02T12:18:53.598Z,8.73
2023-03-02T12:22:31.066Z,8.77
2023-03-02T12:26:20.848Z,8.89
2023-03-02T12:29:55.628Z,8.94
2023-03-02T12:33:21.499Z,9.01
2023-03-02T12:37:01.773Z,9.06
2023-03-02T12:41:05.034Z,9.24
2023-03-02T12:44:55.715Z,9.30
2023-03-02T12:48:26.871Z,9.37
2023-03-02T12:52:00.773Z,9.26
2023-03-02T12:55:39.028Z,9.24
2023-03-02T12:59:00.932Z,9.25
2023-03-02T13:02:33.362Z,9.35
2023-03-02T13:06:31.412Z,9.63
2023-03-02T13:10:22.777Z,9.58
2023-03-02T13:13:46.192Z,9.56
2023-03-02T13:17:32.533Z,9.71
2023-03-02T13:20:56.552Z,9.71
2023-03-02T13:25:03.542Z,9.69
2023-03-02T13:28:36.107Z,9.78
2023-03-02T13:32:25.821Z,9.71
2023-03-02T13:35:48.968Z,9.88
2023-03-02T13:39:29.958Z,9.90
2023-03-02T13:42:51.790Z,9.98
2023-03-02T13:46:17.707Z,9.95
2023-03-02T13:49:40.565Z,9.97
2023-03-02T13:53:06.958Z,10.01
2023-03-02T13:56:34.360Z,10.06
2023-03-02T14:00:00.198Z,10.22
2023-03-02T14:03:29.795Z,10.32
2023-03-02T14:07:02.745Z,10.25
2023-03-02T14:10:30.633Z,10.19
2023-03-02T14:14:08.769Z,10.10
2023-03-02T14:17:36.719Z,10.13
2023-03-02T14:20:58.892Z,10.23
2023-03-02T14:24:22.088Z,10.43
2023-03-02T14:27:47.016Z,10.31
2023-03-02T14:31:09.978Z,10.21
2023-03-02T14:34:36.121Z,9.83
2023-03-02T14:37:59.985Z,9.82
2023-03-02T14:41:24.797Z,9.93
2023-03-02T14:44:51.937Z,9.97
2023-03-02T14:48:18.464Z,9.99
2023-03-02T14:51:43.479Z,9.99
2023-03-02T14:55:31.916Z,10.12
2023-03-02T14:59:03.800Z,10.09
2023-03-02T15:02:27.189Z,10.02
2023-03-02T15:06:01.208Z,9.96
2023-03-02T15:09:24.896Z,10.04
2023-03-02T15:12:49.377Z,10.00
2023-03-02T15:16:12.624Z,10.01
2023-03-02T15:19:53.451Z,10.01
2023-03-02T15:23:16.341Z,10.01
2023-03-02T15:26:45.703Z,10.00
2023-03-02T15:30:08.480Z,10.33
2023-03-02T15:33:30.357Z,10.23
2023-03-02T15:37:04.489Z,10.19
2023-03-02T15:40:45.193Z,10.13
2023-03-02T15:44:22.807Z,10.17
2023-03-02T15:47:51.981Z,10.18
2023-03-02T15:51:14.108Z,10.20
2023-03-02T15:54:36.049Z,10.16
2023-03-02T15:57:59.821Z,10.13
2023-03-02T16:01:21.802Z,10.03
2023-03-02T16:04:43.775Z,10.02
2023-03-02T16:08:06.921Z,10.00
2023-03-02T16:11:28.793Z,9.85
2023-03-02T16:14:55.721Z,9.92
2023-03-02T16:18:25.616Z,9.81
2023-03-02T16:21:48.799Z,9.76
2023-03-02T16:25:18.742Z,9.72
2023-03-02T16:28:42.118Z,9.68
2023-03-02T16:32:06.378Z,9.63
2023-03-02T16:35:32.750Z,9.57
2023-03-02T16:38:54.614Z,9.43
2023-03-02T16:42:18.376Z,9.35
2023-03-02T16:45:43.376Z,9.26
2023-03-02T16:49:06.232Z,9.32
2023-03-02T16:52:29.204Z,9.20
2023-03-02T16:55:51.131Z,9.24
2023-03-02T16:59:14.257Z,9.09
2023-03-02T17:02:36.119Z,8.95
2023-03-02T17:05:58.043Z,8.95
2023-03-02T17:09:20.131Z,8.83
2023-03-02T17:12:45.153Z,8.82
2023-03-02T17:16:09.379Z,8.71
2023-03-02T17:19:39.080Z,8.53
2023-03-02T17:23:02.771Z,8.41
2023-03-02T17:26:25.757Z,8.35
2023-03-02T17:29:47.585Z,8.26
2023-03-02T17:33:14.239Z,8.21
2023-03-02T17:36:39.496Z,8.06
2023-03-02T17:40:02.399Z,7.83
2023-03-02T17:43:24.387Z,7.60
2023-03-02T17:46:47.418Z,7.54
2023-03-02T17:50:13.153Z,7.39
2023-03-02T17:53:36.017Z,7.17
2023-03-02T17:56:57.945Z,7.07
2023-03-02T18:00:22.833Z,6.99
2023-03-02T18:03:45.367Z,6.90
2023-03-02T18:07:09.925Z,6.76
2023-03-02T18:10:42.014Z,6.54
2023-03-02T18:14:07.646Z,6.29
2023-03-02T18:17:30.241Z,6.09
2023-03-02T18:20:55.260Z,5.96
2023-03-02T18:24:19.183Z,5.82
2023-03-02T18:27:41.362Z,5.76
2023-03-02T18:31:05.156Z,5.74
2023-03-02T18:34:27.335Z,5.67
2023-03-02T18:37:56.141Z,5.48
2023-03-02T18:41:21.126Z,5.48
2023-03-02T18:44:47.970Z,5.43
2023-03-02T18:48:09.877Z,5.28
2023-03-02T18:51:32.793Z,5.09
2023-03-02T18:54:57.782Z,4.91
2023-03-02T18:58:23.892Z,4.83
2023-03-02T19:01:51.825Z,4.60
2023-03-02T19:05:19.263Z,4.49
2023-03-02T19:08:45.206Z,4.28
2023-03-02T19:12:09.385Z,4.11
2023-03-02T19:15:34.920Z,4.22
2023-03-02T19:18:57.058Z,4.09
2023-03-02T19:22:19.350Z,4.05
2023-03-02T19:25:42.122Z,3.99
2023-03-02T19:29:04.993Z,3.98
2023-03-02T19:32:26.974Z,3.93
2023-03-02T19:35:50.333Z,3.94
2023-03-02T19:39:12.306Z,3.84
2023-03-02T19:42:36.194Z,3.74
2023-03-02T19:45:58.290Z,3.73
2023-03-02T19:49:50.002Z,4.33
2023-03-02T19:53:26.506Z,4.40
2023-03-02T19:57:21.867Z,4.55
2023-03-02T20:00:47.929Z,4.39
2023-03-02T20:04:10.162Z,4.41
2023-03-02T20:07:35.349Z,4.23
2023-03-02T20:11:35.347Z,4.38
2023-03-02T20:15:10.115Z,4.47
2023-03-02T20:18:56.405Z,4.54
2023-03-02T20:22:50.106Z,4.62
2023-03-02T20:26:16.304Z,4.46
2023-03-02T20:29:47.760Z,4.84
2023-03-02T20:33:12.347Z,4.39
2023-03-02T20:36:36.774Z,4.35
2023-03-02T20:40:09.802Z,4.41
2023-03-02T20:44:20.892Z,4.56
2023-03-02T20:47:44.375Z,4.48
2023-03-02T20:51:22.343Z,4.40
2023-03-02T20:54:50.952Z,4.46
2023-03-02T20:58:13.581Z,4.09
2023-03-02T21:01:36.200Z,4.35
2023-03-02T21:09:10.280Z,4.41
2023-03-02T21:12:33.905Z,4.19
2023-03-02T21:15:59.660Z,4.22
2023-03-02T21:19:23.713Z,4.06
2023-03-02T21:22:46.876Z,3.86
2023-03-02T21:26:14.079Z,3.81
2023-03-02T21:29:36.118Z,3.74
2023-03-02T21:33:01.080Z,3.62
2023-03-02T21:36:26.991Z,3.55
2023-03-02T21:39:48.984Z,3.41
2023-03-02T21:43:22.132Z,3.33
2023-03-02T21:46:51.530Z,3.26
2023-03-02T21:50:34.244Z,3.23
2023-03-02T21:53:58.252Z,3.07
2023-03-02T21:57:28.447Z,3.11
2023-03-02T22:01:06.138Z,3.15
2023-03-02T22:04:59.255Z,3.02
2023-03-02T22:08:41.437Z,3.20
